Time;durP1;ratioP1;P1;durP2;ratioP2;P2;SDS_P1;SDS_P2;PMS_P1;PMS_P2;Temp;Humidity;BMP_temperature;BMP_pressure;BME280_temperature;BME280_humidity;BME280_pressure;Samples;Min_cycle;Max_cycle;Signal;HPM_P1;HPM_P2
2023/01/08 00:02:15;;;;;;;16.73;14.05;;;;;;;;;;6163813;23;20017;-90
2023/01/08 00:04:43;;;;;;;21.80;13.50;;;;;;;;;;6152920;23;20078;-92
2023/01/08 00:07:12;;;;;;;14.75;13.13;;;;;;;;;;6151895;23;20483;-91
2023/01/08 00:09:42;;;;;;;15.18;12.85;;;;;;;;;;6105111;23;20017;-90
2023/01/08 00:12:12;;;;;;;18.20;14.43;;;;;;;;;;6153293;23;20014;-89
2023/01/08 00:14:40;;;;;;;14.48;13.02;;;;;;;;;;6153441;23;20010;-88
2023/01/08 00:17:09;;;;;;;15.98;13.98;;;;;;;;;;6128783;23;20483;-90
2023/01/08 00:19:42;;;;;;;16.73;14.18;;;;;;;;;;6127569;23;20017;-89
2023/01/08 00:22:11;;;;;;;17.33;13.95;;;;;;;;;;6164460;23;20024;-90
2023/01/08 00:24:39;;;;;;;15.30;13.63;;;;;;;;;;6130118;23;20496;-90
2023/01/08 00:27:06;;;;;;;14.77;13.30;;;;;;;;;;6153249;23;20021;-89
2023/01/08 00:29:36;;;;;;;16.88;14.20;;;;;;;;;;6127975;23;20488;-90
2023/01/08 00:32:04;;;;;;;18.98;12.95;;;;;;;;;;6130332;23;20497;-90
2023/01/08 00:34:33;;;;;;;15.43;11.85;;;;;;;;;;6129010;23;20084;-90
2023/01/08 00:37:03;;;;;;;13.50;12.10;;;;;;;;;;6129032;23;20013;-90
2023/01/08 00:39:30;;;;;;;15.90;12.77;;;;;;;;;;6129134;23;20604;-90
2023/01/08 00:41:57;;;;;;;14.07;11.50;;;;;;;;;;6164901;23;20058;-90
2023/01/08 00:44:25;;;;;;;13.95;12.55;;;;;;;;;;6130263;23;20018;-91
2023/01/08 00:46:53;;;;;;;19.02;11.85;;;;;;;;;;6129243;23;20025;-88
2023/01/08 00:49:23;;;;;;;13.73;11.90;;;;;;;;;;6128921;23;20025;-89
2023/01/08 00:51:52;;;;;;;14.90;12.18;;;;;;;;;;6129903;23;20028;-89
2023/01/08 00:54:22;;;;;;;11.40;10.15;;;;;;;;;;6129831;23;20338;-89
2023/01/08 00:56:55;;;;;;;12.43;11.02;;;;;;;;;;6127563;23;20028;-90
2023/01/08 00:59:24;;;;;;;10.52;9.43;;;;;;;;;;6152886;23;20028;-90
2023/01/08 01:01:53;;;;;;;12.13;10.18;;;;;;;;;;6129561;23;20633;-89
2023/01/08 01:04:21;;;;;;;10.05;8.88;;;;;;;;;;6142590;23;20017;-89
2023/01/08 01:06:48;;;;;;;12.25;9.48;;;;;;;;;;6176380;23;20009;-89
2023/01/08 01:09:17;;;;;;;13.80;10.65;;;;;;;;;;6152567;23;20013;-91
2023/01/08 01:11:44;;;;;;;12.10;10.27;;;;;;;;;;6167396;23;20017;-91
2023/01/08 01:14:12;;;;;;;12.40;11.13;;;;;;;;;;6129469;23;20025;-89
2023/01/08 01:16:42;;;;;;;11.90;10.77;;;;;;;;;;6131352;23;20021;-90
2023/01/08 01:19:10;;;;;;;13.05;11.57;;;;;;;;;;6129845;23;20028;-90
2023/01/08 01:21:40;;;;;;;13.57;10.25;;;;;;;;;;6164899;23;20017;-89
2023/01/08 01:24:08;;;;;;;12.45;10.02;;;;;;;;;;6152645;23;20025;-90
2023/01/08 01:26:39;;;;;;;13.80;10.57;;;;;;;;;;6127788;23;20022;-90
2023/01/08 01:29:17;;;;;;;12.68;10.30;;;;;;;;;;6130033;23;20014;-91
2023/01/08 01:31:44;;;;;;;12.55;10.57;;;;;;;;;;6131252;23;20021;-90
2023/01/08 01:34:19;;;;;;;13.30;11.77;;;;;;;;;;6128890;23;20022;-89
2023/01/08 01:36:51;;;;;;;13.30;10.68;;;;;;;;;;6154599;23;20036;-89
2023/01/08 01:39:22;;;;;;;12.18;10.82;;;;;;;;;;6155521;23;20026;-90
2023/01/08 01:41:53;;;;;;;12.95;9.98;;;;;;;;;;6132372;23;20013;-90
2023/01/08 01:44:42;;;;;;;11.48;9.73;;;;;;;;;;6135243;23;20024;-89
2023/01/08 01:47:20;;;;;;;14.63;10.80;;;;;;;;;;6135194;23;20017;-91
2023/01/08 01:50:00;;;;;;;12.05;10.05;;;;;;;;;;6130423;23;20452;-90
2023/01/08 01:52:30;;;;;;;14.05;11.02;;;;;;;;;;6131409;23;20025;-90
2023/01/08 01:55:01;;;;;;;13.15;10.70;;;;;;;;;;6130461;23;20013;-91
2023/01/08 01:57:33;;;;;;;14.55;10.27;;;;;;;;;;6130356;23;20020;-89
2023/01/08 02:00:06;;;;;;;11.23;8.48;;;;;;;;;;6130120;23;20028;-90
2023/01/08 02:02:39;;;;;;;9.23;8.13;;;;;;;;;;6155105;23;20508;-90
2023/01/08 02:05:07;;;;;;;11.40;9.85;;;;;;;;;;6130701;23;20028;-91
2023/01/08 02:07:41;;;;;;;13.02;10.73;;;;;;;;;;6130436;23;20017;-92
2023/01/08 02:10:11;;;;;;;12.55;10.43;;;;;;;;;;6130431;23;20021;-91
2023/01/08 02:12:44;;;;;;;15.27;10.45;;;;;;;;;;6129443;23;20469;-90
2023/01/08 02:15:16;;;;;;;20.35;10.60;;;;;;;;;;6132050;23;20025;-92
2023/01/08 02:17:49;;;;;;;10.93;8.02;;;;;;;;;;6133095;23;20078;-90
2023/01/08 02:20:19;;;;;;;11.93;10.02;;;;;;;;;;6134968;23;20018;-91
2023/01/08 02:22:58;;;;;;;12.70;9.07;;;;;;;;;;6155252;23;20013;-92
2023/01/08 02:25:42;;;;;;;11.30;8.45;;;;;;;;;;6132464;23;20021;-89
2023/01/08 02:28:13;;;;;;;12.25;11.05;;;;;;;;;;6128524;23;20519;-89
2023/01/08 02:30:41;;;;;;;12.85;8.80;;;;;;;;;;6128875;23;20018;-90
2023/01/08 02:33:09;;;;;;;12.07;10.20;;;;;;;;;;6151642;23;20021;-90
2023/01/08 02:35:41;;;;;;;9.60;8.73;;;;;;;;;;6126541;23;20017;-89
2023/01/08 02:38:10;;;;;;;13.15;8.07;;;;;;;;;;6127127;23;20357;-91
2023/01/08 02:40:42;;;;;;;10.95;9.45;;;;;;;;;;6127764;23;20353;-88
2023/01/08 02:43:15;;;;;;;12.77;9.60;;;;;;;;;;6127051;23;20024;-91
2023/01/08 02:45:45;;;;;;;10.10;8.27;;;;;;;;;;6127303;23;20013;-91
2023/01/08 02:48:19;;;;;;;13.40;10.43;;;;;;;;;;6128515;23;20022;-89
2023/01/08 02:50:51;;;;;;;10.40;9.18;;;;;;;;;;6152544;23;20488;-89
2023/01/08 02:53:21;;;;;;;12.38;8.18;;;;;;;;;;6127972;23;20346;-89
2023/01/08 02:55:50;;;;;;;11.55;8.52;;;;;;;;;;6128575;23;20018;-90
2023/01/08 02:58:21;;;;;;;11.38;9.50;;;;;;;;;;6127865;23;20070;-91
2023/01/08 03:00:49;;;;;;;11.60;9.85;;;;;;;;;;6127012;23;20024;-89
2023/01/08 03:03:21;;;;;;;11.10;9.88;;;;;;;;;;6127671;23;20018;-89
2023/01/08 03:05:53;;;;;;;11.07;8.30;;;;;;;;;;6103572;23;20024;-89
2023/01/08 03:08:21;;;;;;;9.70;8.50;;;;;;;;;;6151776;23;20018;-89
2023/01/08 03:10:52;;;;;;;14.35;9.70;;;;;;;;;;6127280;23;20028;-89
2023/01/08 03:13:25;;;;;;;12.52;9.77;;;;;;;;;;6126722;23;20029;-90
2023/01/08 03:15:57;;;;;;;11.40;8.80;;;;;;;;;;6128022;23;20595;-89
2023/01/08 03:18:30;;;;;;;12.02;9.40;;;;;;;;;;6126961;23;20017;-90
2023/01/08 03:20:58;;;;;;;10.57;8.73;;;;;;;;;;6127762;23;20021;-89
2023/01/08 03:23:26;;;;;;;11.32;8.23;;;;;;;;;;6127210;23;20024;-89
2023/01/08 03:25:55;;;;;;;11.38;10.15;;;;;;;;;;6128752;23;20026;-89
2023/01/08 03:28:29;;;;;;;10.48;8.18;;;;;;;;;;6127708;23;20013;-89
2023/01/08 03:30:59;;;;;;;11.02;8.02;;;;;;;;;;6161973;23;20021;-89
2023/01/08 03:33:29;;;;;;;11.27;9.18;;;;;;;;;;6127769;23;20022;-89
2023/01/08 03:35:59;;;;;;;11.00;9.65;;;;;;;;;;6153579;23;20020;-91
2023/01/08 03:38:31;;;;;;;11.85;10.05;;;;;;;;;;6126935;23;20033;-89
2023/01/08 03:41:05;;;;;;;11.15;9.38;;;;;;;;;;6162954;23;20453;-91
2023/01/08 03:43:42;;;;;;;10.70;9.25;;;;;;;;;;6127343;23;20021;-89
2023/01/08 03:46:16;;;;;;;11.52;8.50;;;;;;;;;;6128765;23;20024;-90
2023/01/08 03:48:44;;;;;;;9.13;8.23;;;;;;;;;;6155947;23;20352;-79
2023/01/08 03:51:12;;;;;;;9.85;8.48;;;;;;;;;;6132979;23;20017;-79
2023/01/08 03:53:39;;;;;;;9.57;7.93;;;;;;;;;;6130773;23;20017;-79
2023/01/08 03:56:07;;;;;;;10.35;8.95;;;;;;;;;;6156192;23;20017;-79
2023/01/08 03:58:36;;;;;;;10.32;8.38;;;;;;;;;;6131190;23;20350;-79
2023/01/08 04:01:03;;;;;;;10.77;9.48;;;;;;;;;;6182264;23;20341;-79
2023/01/08 04:03:30;;;;;;;8.93;7.63;;;;;;;;;;6155948;23;20024;-79
2023/01/08 04:05:59;;;;;;;11.60;8.95;;;;;;;;;;6184099;23;20361;-80
2023/01/08 04:08:26;;;;;;;10.55;9.35;;;;;;;;;;6156155;23;20016;-79
2023/01/08 04:10:54;;;;;;;9.25;8.07;;;;;;;;;;6183370;23;20028;-80
2023/01/08 04:13:21;;;;;;;14.27;9.63;;;;;;;;;;6182831;23;20345;-79
2023/01/08 04:15:50;;;;;;;10.85;9.02;;;;;;;;;;6183288;23;20017;-79
2023/01/08 04:18:18;;;;;;;11.55;8.95;;;;;;;;;;6156024;23;20330;-80
2023/01/08 04:20:46;;;;;;;10.45;9.25;;;;;;;;;;6130727;23;20016;-79
2023/01/08 04:23:13;;;;;;;10.88;9.75;;;;;;;;;;6131285;23;20017;-79
2023/01/08 04:25:41;;;;;;;10.98;9.13;;;;;;;;;;6156512;23;20028;-79
2023/01/08 04:28:09;;;;;;;12.40;10.05;;;;;;;;;;6155483;23;20345;-79
2023/01/08 04:30:36;;;;;;;12.82;9.02;;;;;;;;;;6131182;23;20357;-79
2023/01/08 04:33:05;;;;;;;14.52;9.43;;;;;;;;;;6131243;23;20017;-79
2023/01/08 04:35:33;;;;;;;13.50;10.02;;;;;;;;;;6191375;23;20449;-80
2023/01/08 04:38:00;;;;;;;13.10;9.52;;;;;;;;;;6131375;23;20017;-80
2023/01/08 04:40:29;;;;;;;9.98;8.95;;;;;;;;;;6156176;23;20044;-79
2023/01/08 04:42:56;;;;;;;12.38;9.98;;;;;;;;;;6131080;23;20021;-79
2023/01/08 04:45:26;;;;;;;14.20;11.77;;;;;;;;;;6132977;23;20040;-79
2023/01/08 04:47:56;;;;;;;13.13;10.32;;;;;;;;;;6181561;23;20013;-79
2023/01/08 04:50:25;;;;;;;12.57;9.60;;;;;;;;;;6192395;23;20016;-79
2023/01/08 04:52:53;;;;;;;10.63;9.52;;;;;;;;;;6154612;23;20042;-80
2023/01/08 04:55:20;;;;;;;12.10;10.50;;;;;;;;;;6183333;23;20339;-80
2023/01/08 04:57:52;;;;;;;14.90;11.73;;;;;;;;;;6155846;23;20031;-80
2023/01/08 05:00:22;;;;;;;12.52;11.00;;;;;;;;;;6156271;23;20024;-80
2023/01/08 05:02:51;;;;;;;11.68;9.35;;;;;;;;;;6180977;23;20017;-80
2023/01/08 05:05:21;;;;;;;11.30;8.70;;;;;;;;;;6130709;23;20401;-80
2023/01/08 05:07:52;;;;;;;9.52;8.25;;;;;;;;;;6155447;23;20484;-80
2023/01/08 05:10:21;;;;;;;10.90;9.10;;;;;;;;;;6192363;23;20017;-79
2023/01/08 05:12:51;;;;;;;9.77;8.18;;;;;;;;;;6130591;23;20028;-79
2023/01/08 05:15:18;;;;;;;10.13;9.13;;;;;;;;;;6131207;23;20021;-80
2023/01/08 05:17:46;;;;;;;13.93;10.07;;;;;;;;;;6181484;23;20021;-80
2023/01/08 05:20:13;;;;;;;12.98;10.60;;;;;;;;;;6155945;23;20492;-80
2023/01/08 05:22:40;;;;;;;12.82;9.63;;;;;;;;;;6181977;23;20017;-80
2023/01/08 05:25:09;;;;;;;10.52;9.50;;;;;;;;;;6153987;23;20017;-80
2023/01/08 05:27:36;;;;;;;9.80;8.48;;;;;;;;;;6181369;23;20021;-80
2023/01/08 05:30:07;;;;;;;11.20;8.55;;;;;;;;;;6182207;23;20013;-80
2023/01/08 05:32:35;;;;;;;13.27;9.93;;;;;;;;;;6155989;23;20013;-79
2023/01/08 05:35:06;;;;;;;10.77;8.75;;;;;;;;;;6131596;23;20028;-79
2023/01/08 05:37:36;;;;;;;9.52;8.63;;;;;;;;;;6130379;23;20021;-80
2023/01/08 05:40:04;;;;;;;11.85;8.45;;;;;;;;;;6130951;23;20028;-80
2023/01/08 05:42:33;;;;;;;10.25;9.20;;;;;;;;;;6156014;23;20425;-79
2023/01/08 05:45:00;;;;;;;12.90;9.10;;;;;;;;;;6182619;23;20021;-80
2023/01/08 05:47:29;;;;;;;11.00;9.77;;;;;;;;;;6153324;23;20024;-79
2023/01/08 05:49:59;;;;;;;9.80;8.80;;;;;;;;;;6181414;23;20065;-80
2023/01/08 05:52:29;;;;;;;11.73;9.57;;;;;;;;;;6155884;23;20017;-80
2023/01/08 05:54:56;;;;;;;10.88;9.07;;;;;;;;;;6182638;23;20033;-80
2023/01/08 05:57:28;;;;;;;11.10;8.93;;;;;;;;;;6188694;23;20356;-79
2023/01/08 05:59:56;;;;;;;12.35;9.90;;;;;;;;;;6155514;23;20021;-79
2023/01/08 06:02:23;;;;;;;11.95;9.93;;;;;;;;;;6154617;23;20032;-80
2023/01/08 06:04:50;;;;;;;10.00;8.85;;;;;;;;;;6155361;23;20024;-79
2023/01/08 06:07:18;;;;;;;10.82;9.50;;;;;;;;;;6154137;23;20024;-80
2023/01/08 06:09:47;;;;;;;11.82;10.18;;;;;;;;;;6154332;23;20013;-80
2023/01/08 06:12:14;;;;;;;12.27;10.52;;;;;;;;;;6182441;23;20017;-80
2023/01/08 06:14:44;;;;;;;13.30;10.07;;;;;;;;;;6132437;23;20024;-80
2023/01/08 06:17:13;;;;;;;11.57;9.32;;;;;;;;;;6155930;23;20017;-80
2023/01/08 06:19:41;;;;;;;13.25;11.07;;;;;;;;;;6155647;23;20043;-80
2023/01/08 06:22:08;;;;;;;12.07;10.88;;;;;;;;;;6158640;23;20021;-80
2023/01/08 06:24:35;;;;;;;13.43;12.02;;;;;;;;;;6159199;23;20046;-80
2023/01/08 06:27:02;;;;;;;11.35;10.13;;;;;;;;;;6168308;23;20038;-80
2023/01/08 06:29:29;;;;;;;13.55;11.07;;;;;;;;;;6132069;23;20017;-79
2023/01/08 06:31:59;;;;;;;10.98;9.35;;;;;;;;;;6184208;23;20480;-80
2023/01/08 06:34:30;;;;;;;21.55;9.90;;;;;;;;;;6158283;23;20021;-80
2023/01/08 06:36:57;;;;;;;12.68;10.20;;;;;;;;;;6185277;23;20346;-80
2023/01/08 06:39:24;;;;;;;14.45;8.85;;;;;;;;;;6158093;23;20013;-80
2023/01/08 06:41:54;;;;;;;11.27;7.70;;;;;;;;;;6158900;23;20025;-80
2023/01/08 06:44:21;;;;;;;11.73;9.85;;;;;;;;;;6185546;23;20013;-79
2023/01/08 06:46:49;;;;;;;10.55;9.55;;;;;;;;;;6184744;23;20040;-80
2023/01/08 06:49:21;;;;;;;14.15;11.13;;;;;;;;;;6181687;23;20349;-80
2023/01/08 06:51:49;;;;;;;13.32;10.27;;;;;;;;;;6158099;23;20025;-80
2023/01/08 06:54:16;;;;;;;16.95;10.35;;;;;;;;;;6184460;23;20013;-80
2023/01/08 06:56:48;;;;;;;12.60;10.65;;;;;;;;;;6132754;23;20028;-80
2023/01/08 06:59:15;;;;;;;10.65;9.30;;;;;;;;;;6182029;23;20020;-80
2023/01/08 07:01:45;;;;;;;11.75;8.82;;;;;;;;;;6183994;23;20024;-80
2023/01/08 07:04:15;;;;;;;12.35;10.48;;;;;;;;;;6132310;23;20331;-80
2023/01/08 07:06:42;;;;;;;11.05;8.75;;;;;;;;;;6132793;23;20390;-80
2023/01/08 07:09:11;;;;;;;12.00;10.15;;;;;;;;;;6155292;23;20024;-80
2023/01/08 07:11:39;;;;;;;11.00;9.10;;;;;;;;;;6132637;23;20024;-80
2023/01/08 07:14:08;;;;;;;14.40;8.80;;;;;;;;;;6157392;23;20013;-80
2023/01/08 07:16:38;;;;;;;13.70;9.68;;;;;;;;;;6156295;23;20032;-80
2023/01/08 07:19:08;;;;;;;13.63;12.23;;;;;;;;;;6155919;23;20020;-80
2023/01/08 07:21:37;;;;;;;15.85;11.45;;;;;;;;;;6155608;23;20017;-80
2023/01/08 07:24:06;;;;;;;13.48;9.93;;;;;;;;;;6165813;23;20027;-80
2023/01/08 07:26:35;;;;;;;11.65;10.10;;;;;;;;;;6133180;23;20465;-80
2023/01/08 07:29:02;;;;;;;13.25;10.77;;;;;;;;;;6182901;23;20020;-80
2023/01/08 07:31:29;;;;;;;10.63;9.55;;;;;;;;;;6157124;23;20487;-80
2023/01/08 07:33:59;;;;;;;10.50;9.15;;;;;;;;;;6156227;23;20492;-80
2023/01/08 07:36:29;;;;;;;13.38;9.25;;;;;;;;;;6156818;23;20354;-80
2023/01/08 07:38:56;;;;;;;10.75;9.40;;;;;;;;;;6182404;23;20024;-80
2023/01/08 07:41:23;;;;;;;10.95;9.85;;;;;;;;;;6131554;23;20025;-80
2023/01/08 07:43:52;;;;;;;14.55;10.45;;;;;;;;;;6157125;23;20354;-80
2023/01/08 07:46:19;;;;;;;10.73;9.57;;;;;;;;;;6177722;23;20021;-80
2023/01/08 07:48:46;;;;;;;12.02;9.77;;;;;;;;;;6127394;23;20025;-80
2023/01/08 07:51:14;;;;;;;12.32;10.40;;;;;;;;;;6131003;23;20017;-80
2023/01/08 07:53:41;;;;;;;12.93;9.50;;;;;;;;;;6156329;23;20024;-80
2023/01/08 07:56:09;;;;;;;13.30;10.60;;;;;;;;;;6153876;23;20498;-80
2023/01/08 07:58:37;;;;;;;10.90;8.90;;;;;;;;;;6155671;23;20016;-80
2023/01/08 08:01:08;;;;;;;13.73;11.05;;;;;;;;;;6180071;23;20024;-80
2023/01/08 08:03:35;;;;;;;15.57;9.57;;;;;;;;;;6156577;23;20025;-81
2023/01/08 08:06:03;;;;;;;12.02;10.02;;;;;;;;;;6129990;23;20469;-81
2023/01/08 08:08:33;;;;;;;13.63;9.52;;;;;;;;;;6182567;23;20021;-81
2023/01/08 08:11:00;;;;;;;11.68;10.05;;;;;;;;;;6154886;23;20009;-81
2023/01/08 08:13:28;;;;;;;10.38;9.27;;;;;;;;;;6155568;23;20021;-82
2023/01/08 08:15:55;;;;;;;14.02;10.30;;;;;;;;;;6155154;23;20024;-82
2023/01/08 08:18:24;;;;;;;12.30;9.77;;;;;;;;;;6157480;23;20012;-81
2023/01/08 08:20:53;;;;;;;11.45;10.35;;;;;;;;;;6165102;23;20013;-83
2023/01/08 08:23:25;;;;;;;9.60;8.50;;;;;;;;;;6155842;23;20361;-81
2023/01/08 08:25:52;;;;;;;11.75;9.60;;;;;;;;;;6131698;23;20017;-82
2023/01/08 08:28:22;;;;;;;12.65;10.70;;;;;;;;;;6183584;23;20036;-82
2023/01/08 08:30:51;;;;;;;12.43;11.00;;;;;;;;;;6183045;23;20013;-82
2023/01/08 08:33:19;;;;;;;12.85;8.95;;;;;;;;;;6155548;23;20021;-82
2023/01/08 08:35:50;;;;;;;13.02;10.10;;;;;;;;;;6183581;23;20028;-82
2023/01/08 08:38:19;;;;;;;11.63;10.00;;;;;;;;;;6154880;23;20032;-82
2023/01/08 08:40:49;;;;;;;11.32;9.05;;;;;;;;;;6182462;23;20469;-82
2023/01/08 08:43:18;;;;;;;17.20;11.88;;;;;;;;;;6154667;23;20017;-82
2023/01/08 08:45:48;;;;;;;28.83;22.80;;;;;;;;;;6156798;23;20021;-82
2023/01/08 08:48:15;;;;;;;18.20;14.52;;;;;;;;;;6182175;23;20024;-81
2023/01/08 08:50:43;;;;;;;15.82;12.90;;;;;;;;;;6182116;23;20016;-81
2023/01/08 08:53:14;;;;;;;12.63;11.27;;;;;;;;;;6130448;23;20461;-82
2023/01/08 08:55:43;;;;;;;15.45;13.40;;;;;;;;;;6166565;23;20024;-82
2023/01/08 08:58:12;;;;;;;16.10;13.43;;;;;;;;;;6156045;23;20345;-82
2023/01/08 09:00:40;;;;;;;16.35;14.60;;;;;;;;;;6181262;23;20017;-82
2023/01/08 09:03:10;;;;;;;19.13;16.27;;;;;;;;;;6130906;23;20013;-82
2023/01/08 09:05:41;;;;;;;24.77;20.90;;;;;;;;;;6180988;23;20020;-81
2023/01/08 09:08:15;;;;;;;16.47;14.10;;;;;;;;;;6185578;23;20017;-82
2023/01/08 09:10:42;;;;;;;18.33;15.13;;;;;;;;;;6182104;23;20252;-82
2023/01/08 09:13:10;;;;;;;14.90;13.32;;;;;;;;;;6182550;23;20338;-82
2023/01/08 09:15:38;;;;;;;16.02;14.30;;;;;;;;;;6181812;23;20017;-82
2023/01/08 09:18:07;;;;;;;16.98;15.10;;;;;;;;;;6182427;23;20025;-82
2023/01/08 09:20:39;;;;;;;18.20;14.07;;;;;;;;;;6182440;23;20010;-82
2023/01/08 09:23:09;;;;;;;19.83;14.35;;;;;;;;;;6156587;23;20024;-82
2023/01/08 09:25:40;;;;;;;23.25;17.48;;;;;;;;;;6181124;23;20353;-82
2023/01/08 09:28:12;;;;;;;21.00;18.65;;;;;;;;;;6187333;23;20032;-82
2023/01/08 09:30:39;;;;;;;21.73;19.02;;;;;;;;;;6190272;23;20016;-82
2023/01/08 09:33:10;;;;;;;21.95;18.85;;;;;;;;;;6182932;23;20123;-82
2023/01/08 09:35:37;;;;;;;17.92;15.02;;;;;;;;;;6182898;23;20492;-81
2023/01/08 09:38:08;;;;;;;24.38;17.52;;;;;;;;;;6180494;23;20335;-81
2023/01/08 09:40:39;;;;;;;23.25;17.65;;;;;;;;;;6179958;23;20009;-81
2023/01/08 09:43:10;;;;;;;20.15;17.48;;;;;;;;;;6190216;23;20021;-81
2023/01/08 09:45:40;;;;;;;;;;;;;;;;;;6191148;23;20017;-81
2023/01/08 09:48:12;;;;;;;19.58;16.98;;;;;;;;;;6185065;23;20291;-83
2023/01/08 09:50:42;;;;;;;18.92;15.90;;;;;;;;;;6218324;23;20032;-83
2023/01/08 09:53:14;;;;;;;21.58;17.02;;;;;;;;;;6210814;23;20020;-83
2023/01/08 09:55:41;;;;;;;18.55;15.82;;;;;;;;;;6222533;23;20016;-83
2023/01/08 09:58:23;;;;;;;18.20;16.50;;;;;;;;;;6212702;23;20020;-83
2023/01/08 10:00:51;;;;;;;22.08;16.30;;;;;;;;;;6222217;23;20345;-84
2023/01/08 10:03:18;;;;;;;20.50;15.48;;;;;;;;;;6212114;23;20372;-86
2023/01/08 10:05:45;;;;;;;20.40;15.45;;;;;;;;;;6219783;23;20017;-86
2023/01/08 10:08:14;;;;;;;18.83;15.70;;;;;;;;;;6210655;23;20024;-85
2023/01/08 10:10:41;;;;;;;25.90;19.50;;;;;;;;;;6184801;23;20012;-85
2023/01/08 10:13:11;;;;;;;22.13;18.60;;;;;;;;;;6212699;23;20013;-85
2023/01/08 10:15:40;;;;;;;19.45;16.38;;;;;;;;;;6186703;23;20016;-83
2023/01/08 10:18:11;;;;;;;25.85;21.55;;;;;;;;;;6213059;23;20013;-83
2023/01/08 10:20:39;;;;;;;20.92;16.05;;;;;;;;;;6184906;23;20028;-83
2023/01/08 10:23:11;;;;;;;14.45;12.18;;;;;;;;;;6213786;23;20345;-83
2023/01/08 10:25:50;;;;;;;11.10;9.77;;;;;;;;;;6212101;23;20023;-83
2023/01/08 10:28:22;;;;;;;19.83;12.68;;;;;;;;;;6186050;23;20016;-82
2023/01/08 10:30:52;;;;;;;13.57;9.73;;;;;;;;;;6211251;23;20322;-83
2023/01/08 10:33:23;;;;;;;12.13;10.63;;;;;;;;;;6212366;23;20469;-83
2023/01/08 10:35:57;;;;;;;13.65;10.45;;;;;;;;;;6186475;23;20032;-83
2023/01/08 10:38:28;;;;;;;12.30;11.02;;;;;;;;;;6212290;23;20036;-83
2023/01/08 10:40:58;;;;;;;10.77;9.05;;;;;;;;;;6208884;23;20027;-84
2023/01/08 10:43:28;;;;;;;13.55;9.38;;;;;;;;;;6211468;23;20020;-86
2023/01/08 10:45:59;;;;;;;12.13;9.20;;;;;;;;;;6212366;23;20020;-85
2023/01/08 10:48:33;;;;;;;11.68;8.85;;;;;;;;;;6184483;23;20017;-85
2023/01/08 10:51:14;;;;;;;8.40;7.03;;;;;;;;;;6211325;23;20013;-85
2023/01/08 10:53:41;;;;;;;6.75;5.80;;;;;;;;;;6223058;23;20023;-85
2023/01/08 10:56:18;;;;;;;8.98;5.35;;;;;;;;;;6187148;23;20353;-86
2023/01/08 10:58:45;;;;;;;9.35;5.43;;;;;;;;;;6211465;23;20032;-85
2023/01/08 11:01:17;;;;;;;7.25;6.13;;;;;;;;;;6210125;23;20021;-85
2023/01/08 11:03:50;;;;;;;6.13;4.88;;;;;;;;;;6185964;23;20345;-85
2023/01/08 11:06:21;;;;;;;5.47;4.95;;;;;;;;;;6221489;23;20020;-85
2023/01/08 11:08:53;;;;;;;9.90;6.55;;;;;;;;;;6216050;23;20020;-84
2023/01/08 11:11:20;;;;;;;5.75;5.15;;;;;;;;;;6222169;23;20012;-84
2023/01/08 11:13:58;;;;;;;5.53;4.20;;;;;;;;;;6210883;23;20012;-85
2023/01/08 11:16:34;;;;;;;5.05;4.43;;;;;;;;;;6223685;23;20337;-85
2023/01/08 11:19:01;;;;;;;6.70;4.55;;;;;;;;;;6185623;23;20413;-85
2023/01/08 11:21:30;;;;;;;5.25;3.10;;;;;;;;;;6186795;23;20020;-84
2023/01/08 11:24:03;;;;;;;5.70;3.58;;;;;;;;;;6211882;23;20023;-85
2023/01/08 11:26:31;;;;;;;4.10;3.45;;;;;;;;;;6213052;23;20487;-85
2023/01/08 11:29:02;;;;;;;3.88;2.90;;;;;;;;;;6216329;23;20021;-85
2023/01/08 11:31:38;;;;;;;5.38;3.72;;;;;;;;;;6223400;23;20036;-85
2023/01/08 11:34:07;;;;;;;5.40;3.50;;;;;;;;;;6233074;23;20043;-85
2023/01/08 11:36:40;;;;;;;4.88;4.38;;;;;;;;;;6212316;23;20019;-85
2023/01/08 11:39:09;;;;;;;3.55;3.13;;;;;;;;;;6214345;23;20352;-86
2023/01/08 11:41:51;;;;;;;4.60;3.33;;;;;;;;;;6188117;23;20020;-85
2023/01/08 11:44:29;;;;;;;4.22;3.55;;;;;;;;;;6185242;23;20021;-86
2023/01/08 11:47:04;;;;;;;3.72;3.10;;;;;;;;;;6223161;23;20020;-87
2023/01/08 11:49:43;;;;;;;6.88;2.88;;;;;;;;;;6186153;23;20024;-87
2023/01/08 11:52:34;;;;;;;4.20;3.58;;;;;;;;;;6210862;23;20357;-87
2023/01/08 11:55:12;;;;;;;3.65;3.05;;;;;;;;;;6221523;23;20016;-87
2023/01/08 11:57:49;;;;;;;3.05;2.25;;;;;;;;;;6222163;23;20020;-87
2023/01/08 12:00:32;;;;;;;3.22;2.50;;;;;;;;;;6218250;23;20013;-87
2023/01/08 12:03:08;;;;;;;4.13;2.55;;;;;;;;;;6208354;23;20027;-87
2023/01/08 12:05:42;;;;;;;4.25;2.95;;;;;;;;;;6222866;23;20013;-87
2023/01/08 12:41:25;;;;;;;3.00;1.73;;;;;;;;;;6184039;23;20025;-88
2023/01/08 12:43:55;;;;;;;3.50;2.85;;;;;;;;;;6131080;23;20477;-87
2023/01/08 12:46:24;;;;;;;4.45;2.88;;;;;;;;;;6134814;23;20042;-87
2023/01/08 12:48:53;;;;;;;3.33;2.78;;;;;;;;;;6141700;23;20013;-88
2023/01/08 12:51:26;;;;;;;3.58;3.15;;;;;;;;;;6128228;23;20018;-88
2023/01/08 12:53:56;;;;;;;3.80;3.08;;;;;;;;;;6136914;23;20351;-88
2023/01/08 12:56:30;;;;;;;3.83;3.40;;;;;;;;;;6136249;23;20311;-88
2023/01/08 12:59:14;;;;;;;6.05;3.45;;;;;;;;;;6157839;23;20017;-87
2023/01/08 13:01:46;;;;;;;5.57;3.80;;;;;;;;;;6164073;23;20018;-88
2023/01/08 13:04:14;;;;;;;3.63;3.08;;;;;;;;;;6127242;23;20470;-88
2023/01/08 13:06:50;;;;;;;5.38;4.20;;;;;;;;;;6152019;23;20350;-88
2023/01/08 13:09:22;;;;;;;4.00;3.58;;;;;;;;;;6100915;23;20021;-88
2023/01/08 13:11:53;;;;;;;5.50;4.50;;;;;;;;;;6164125;23;20021;-88
2023/01/08 13:14:25;;;;;;;5.10;4.53;;;;;;;;;;6153802;23;20446;-88
2023/01/08 13:17:04;;;;;;;8.93;5.43;;;;;;;;;;6101710;23;20029;-88
2023/01/08 13:19:39;;;;;;;6.00;4.68;;;;;;;;;;6127799;23;20481;-88
2023/01/08 13:22:23;;;;;;;5.70;4.97;;;;;;;;;;6163823;23;20020;-88
2023/01/08 13:25:08;;;;;;;7.07;5.32;;;;;;;;;;6128583;23;20024;-88
2023/01/08 13:27:36;;;;;;;5.38;4.88;;;;;;;;;;6163284;23;20013;-87
2023/01/08 13:30:19;;;;;;;5.72;5.20;;;;;;;;;;6129812;23;20354;-88
2023/01/08 13:32:47;;;;;;;6.43;3.38;;;;;;;;;;6155898;23;20268;-87
2023/01/08 13:35:21;;;;;;;4.88;4.25;;;;;;;;;;6156542;23;20021;-87
2023/01/08 13:37:50;;;;;;;3.80;3.10;;;;;;;;;;6129034;23;20474;-87
2023/01/08 13:40:52;;;;;;;3.67;2.78;;;;;;;;;;6129257;23;20365;-87
2023/01/08 13:43:22;;;;;;;4.40;3.47;;;;;;;;;;6138918;23;20025;-87
2023/01/08 13:45:59;;;;;;;5.53;4.75;;;;;;;;;;6130293;23;20014;-87
2023/01/08 13:48:28;;;;;;;7.30;5.45;;;;;;;;;;6154325;23;20018;-87
2023/01/08 13:50:56;;;;;;;7.43;5.63;;;;;;;;;;6106307;23;20481;-87
2023/01/08 13:53:24;;;;;;;5.75;4.75;;;;;;;;;;6159856;23;20025;-87
2023/01/08 13:55:55;;;;;;;5.25;4.75;;;;;;;;;;6134688;23;20350;-87
2023/01/08 13:58:26;;;;;;;6.05;4.53;;;;;;;;;;6161158;23;20022;-87
2023/01/08 14:00:57;;;;;;;7.05;4.95;;;;;;;;;;6165668;23;20013;-88
2023/01/08 14:03:28;;;;;;;6.35;5.75;;;;;;;;;;6155099;23;20378;-87
2023/01/08 14:06:06;;;;;;;5.25;4.75;;;;;;;;;;6129502;23;20462;-87
2023/01/08 14:08:36;;;;;;;5.93;4.10;;;;;;;;;;6103245;23;20021;-87
2023/01/08 14:11:04;;;;;;;3.83;3.47;;;;;;;;;;6153469;23;20358;-87
2023/01/08 14:13:34;;;;;;;3.30;2.92;;;;;;;;;;6128108;23;20458;-87
2023/01/08 14:16:04;;;;;;;4.35;3.60;;;;;;;;;;6105181;23;20025;-87
2023/01/08 14:18:41;;;;;;;4.88;3.40;;;;;;;;;;6104179;23;20026;-88
2023/01/08 14:21:14;;;;;;;3.80;3.47;;;;;;;;;;6127766;23;20032;-88
2023/01/08 14:23:45;;;;;;;3.50;3.10;;;;;;;;;;6129016;23;20346;-88
2023/01/08 14:26:19;;;;;;;3.05;2.47;;;;;;;;;;6139545;23;20013;-88
2023/01/08 14:28:53;;;;;;;2.97;2.63;;;;;;;;;;6128134;23;20028;-88
2023/01/08 14:31:22;;;;;;;4.20;3.45;;;;;;;;;;6153838;23;20018;-86
2023/01/08 14:33:50;;;;;;;3.30;3.00;;;;;;;;;;6124422;23;20014;-87
2023/01/08 14:36:18;;;;;;;3.78;3.42;;;;;;;;;;6127817;23;20017;-86
2023/01/08 14:38:49;;;;;;;4.82;3.92;;;;;;;;;;6127288;23;20017;-86
2023/01/08 14:41:18;;;;;;;5.82;5.13;;;;;;;;;;6127391;23;20323;-86
2023/01/08 14:43:49;;;;;;;5.28;4.68;;;;;;;;;;6126887;23;20461;-85
2023/01/08 14:46:22;;;;;;;5.15;4.63;;;;;;;;;;6128555;23;20017;-86
2023/01/08 14:48:50;;;;;;;5.53;3.97;;;;;;;;;;6126953;23;20028;-86
2023/01/08 14:51:24;;;;;;;5.53;4.22;;;;;;;;;;6128265;23;20040;-86
2023/01/08 14:53:55;;;;;;;4.38;3.97;;;;;;;;;;6163124;23;20020;-86
2023/01/08 14:56:25;;;;;;;5.35;4.85;;;;;;;;;;6129300;23;20017;-86
2023/01/08 14:58:54;;;;;;;7.55;5.53;;;;;;;;;;6153132;23;20021;-86
2023/01/08 15:01:27;;;;;;;7.95;5.35;;;;;;;;;;6163586;23;20028;-86
2023/01/08 15:04:05;;;;;;;5.38;4.88;;;;;;;;;;6125464;23;20029;-85
2023/01/08 15:06:34;;;;;;;4.65;4.03;;;;;;;;;;6150863;23;20017;-85
2023/01/08 16:05:31;;;;;;;12.93;9.63;;;;;;;;;;6183025;23;20024;-91
2023/01/08 16:08:02;;;;;;;14.73;8.88;;;;;;;;;;6153236;23;20021;-91
2023/01/08 16:10:37;;;;;;;11.00;6.93;;;;;;;;;;6135098;23;20021;-91
2023/01/08 16:13:05;;;;;;;10.82;6.93;;;;;;;;;;6109967;23;20464;-91
2023/01/08 16:15:40;;;;;;;8.45;6.93;;;;;;;;;;6135238;23;20023;-91
2023/01/08 16:21:00;;;;;;;8.55;6.50;;;;;;;;;;6142505;23;20022;-91